Time;durP1;ratioP1;P1;durP2;ratioP2;P2;SDS_P1;SDS_P2;PMS_P1;PMS_P2;Temp;Humidity;BMP_temperature;BMP_pressure;BME280_temperature;BME280_humidity;BME280_pressure;Samples;Min_cycle;Max_cycle;Signal;HPM_P1;HPM_P2
2024/02/01 00:01:08;;;;;;;;;;;;;;;;;;5085035;28;19912;-89
2024/02/01 00:03:34;;;;;;;;;;;;;;;;;;5083599;28;19913;-89
2024/02/01 00:06:00;;;;;;;;;;;;;;;;;;5080073;28;19921;-89
2024/02/01 00:08:25;;;;;;;;;;;;;;;;;;5078912;28;19966;-89
2024/02/01 00:10:51;;;;;;;;;;;;;;;;;;5061710;28;19912;-89
2024/02/01 00:13:17;;;;;;;;;;;;;;;;;;5078918;28;20385;-92
2024/02/01 00:15:43;;;;;;;;;;;;;;;;;;5079964;28;19997;-90
2024/02/01 00:18:09;;;;;;;;;;;;;;;;;;5080109;28;19912;-90
2024/02/01 00:20:35;;;;;;;;;;;;;;;;;;5082640;28;19943;-89
2024/02/01 00:23:01;;;;;;;;;;;;;;;;;;5065803;28;19916;-89
2024/02/01 00:25:27;;;;;;;;;;;;;;;;;;5077153;28;19913;-89
2024/02/01 00:27:53;;;;;;;;;;;;;;;;;;5080038;28;19916;-89
2024/02/01 00:30:20;;;;;;;;;;;;;;;;;;5076604;28;19958;-89
2024/02/01 00:32:46;;;;;;;;;;;;;;;;;;5062101;28;19913;-89
2024/02/01 00:35:12;;;;;;;;;;;;;;;;;;5077989;28;19918;-89
2024/02/01 00:37:38;;;;;;;;;;;;;;;;;;5079608;28;19916;-89
2024/02/01 00:40:04;;;;;;;;;;;;;;;;;;5078502;28;19913;-89
2024/02/01 00:42:30;;;;;;;;;;;;;;;;;;5062474;28;20015;-90
2024/02/01 00:45:01;;;;;;;;;;;;;;;;;;5055372;28;19913;-91
2024/02/01 00:47:27;;;;;;;;;;;;;;;;;;5077145;28;19917;-89
2024/02/01 00:49:53;;;;;;;;;;;;;;;;;;5078247;28;19959;-89
2024/02/01 00:52:19;;;;;;;;;;;;;;;;;;5082935;28;19912;-90
2024/02/01 00:54:45;;;;;;;;;;;;;;;;;;5079997;28;20488;-89
2024/02/01 00:57:11;;;;;;;;;;;;;;;;;;5082563;28;19917;-88
2024/02/01 00:59:37;;;;;;;;;;;;;;;;;;5069685;28;19912;-88
2024/02/01 01:02:03;;;;;;;;;;;;;;;;;;5076652;28;19932;-89
2024/02/01 01:04:28;;;;;;;;;;;;;;;;;;5057932;28;19913;-89
2024/02/01 01:06:54;;;;;;;;;;;;;;;;;;5076382;28;19916;-87
2024/02/01 01:09:20;;;;;;;;;;;;;;;;;;5060445;28;19938;-88
2024/02/01 01:11:46;;;;;;;;;;;;;;;;;;5075873;28;20030;-89
2024/02/01 01:14:12;;;;;;;;;;;;;;;;;;5072246;28;19916;-88
2024/02/01 01:16:38;;;;;;;;;;;;;;;;;;5082477;28;19951;-90
2024/02/01 01:19:03;;;;;;;;;;;;;;;;;;5060691;28;20256;-90
2024/02/01 01:21:29;;;;;;;;;;;;;;;;;;5081109;28;19929;-90
2024/02/01 01:23:55;;;;;;;;;;;;;;;;;;5075535;28;19971;-89
2024/02/01 01:26:21;;;;;;;;;;;;;;;;;;5057840;28;19947;-88
2024/02/01 01:28:47;;;;;;;;;;;;;;;;;;5080003;28;19912;-89
2024/02/01 01:31:13;;;;;;;;;;;;;;;;;;5073790;28;19939;-89
2024/02/01 01:33:39;;;;;;;;;;;;;;;;;;5079643;28;19914;-90
2024/02/01 01:36:05;;;;;;;;;;;;;;;;;;5077376;28;19920;-90
2024/02/01 01:38:31;;;;;;;;;;;;;;;;;;5074904;28;20227;-89
2024/02/01 01:40:57;;;;;;;;;;;;;;;;;;5077598;28;19969;-89
2024/02/01 01:43:25;;;;;;;;;;;;;;;;;;5076017;28;19956;-89
2024/02/01 01:45:51;;;;;;;;;;;;;;;;;;5076680;28;19965;-90
2024/02/01 01:48:16;;;;;;;;;;;;;;;;;;5074305;28;19912;-90
2024/02/01 01:50:42;;;;;;;;;;;;;;;;;;5079001;28;19992;-91
2024/02/01 01:53:08;;;;;;;;;;;;;;;;;;5078431;28;20425;-88
2024/02/01 01:55:34;;;;;;;;;;;;;;;;;;5077183;28;19921;-88
2024/02/01 01:58:00;;;;;;;;;;;;;;;;;;5083940;28;19920;-90
2024/02/01 02:00:30;;;;;;;;;;;;;;;;;;5079214;28;19900;-91
2024/02/01 02:02:55;;;;;;;;;;;;;;;;;;5084846;28;20307;-91
2024/02/01 02:05:27;;;;;;;;;;;;;;;;;;5063540;28;19955;-92
2024/02/01 02:07:53;;;;;;;;;;;;;;;;;;5081816;28;19998;-87
2024/02/01 02:10:19;;;;;;;;;;;;;;;;;;5078200;28;20383;-87
2024/02/01 02:12:44;;;;;;;;;;;;;;;;;;5068326;28;19919;-90
2024/02/01 02:15:10;;;;;;;;;;;;;;;;;;5078585;28;19917;-89
2024/02/01 02:17:36;;;;;;;;;;;;;;;;;;5076445;28;19912;-89
2024/02/01 02:20:02;;;;;;;;;;;;;;;;;;5077342;28;20019;-93
2024/02/01 02:22:29;;;;;;;;;;;;;;;;;;5077039;28;19948;-90
2024/02/01 02:24:55;;;;;;;;;;;;;;;;;;5063921;28;19924;-90
2024/02/01 02:27:21;;;;;;;;;;;;;;;;;;5064878;28;20006;-86
2024/02/01 02:29:47;;;;;;;;;;;;;;;;;;5087923;28;19897;-91
2024/02/01 02:32:13;;;;;;;;;;;;;;;;;;5085430;28;19917;-91
2024/02/01 02:34:40;;;;;;;;;;;;;;;;;;5091747;28;19912;-88
2024/02/01 02:37:08;;;;;;;;;;;;;;;;;;5084034;28;19920;-91
2024/02/01 02:39:37;;;;;;;;;;;;;;;;;;5083127;28;19912;-92
2024/02/01 02:42:04;;;;;;;;;;;;;;;;;;5064144;28;19920;-89
2024/02/01 02:44:30;;;;;;;;;;;;;;;;;;5081011;28;19922;-90
2024/02/01 02:46:55;;;;;;;;;;;;;;;;;;5080314;28;19924;-91
2024/02/01 02:49:21;;;;;;;;;;;;;;;;;;5058807;28;19931;-90
2024/02/01 02:51:47;;;;;;;;;;;;;;;;;;5084694;28;19913;-91
2024/02/01 02:54:13;;;;;;;;;;;;;;;;;;5082437;28;20346;-91
2024/02/01 02:56:39;;;;;;;;;;;;;;;;;;5084755;28;19979;-91
2024/02/01 02:59:05;;;;;;;;;;;;;;;;;;5072112;28;19913;-90
2024/02/01 03:01:32;;;;;;;;;;;;;;;;;;5162551;22;19933;-91
2024/02/01 03:03:57;;;;;;;;;;;;;;;;;;5046817;28;19917;-91
2024/02/01 03:06:23;;;;;;;;;;;;;;;;;;5061697;28;19917;-91
2024/02/01 03:08:49;;;;;;;;;;;;;;;;;;5060075;28;20389;-90
2024/02/01 03:11:16;;;;;;;;;;;;;;;;;;5065297;28;19901;-90
2024/02/01 03:13:45;;;;;;;;;;;;;;;;;;5069051;28;19921;-89
2024/02/01 03:16:11;;;;;;;;;;;;;;;;;;5065759;28;19948;-89
2024/02/01 03:18:37;;;;;;;;;;;;;;;;;;5073632;28;19920;-90
2024/02/01 03:21:08;;;;;;;;;;;;;;;;;;5131026;22;19908;-90
2024/02/01 03:23:34;;;;;;;;;;;;;;;;;;5080781;28;19927;-90
2024/02/01 03:26:06;;;;;;;;;;;;;;;;;;5083850;28;19912;-89
2024/02/01 03:28:41;;;;;;;;;;;;;;;;;;5200316;22;19935;-90
2024/02/01 03:34:10;;;;;;;;;;;;;;;;;;5090058;28;19948;-88
2024/02/01 03:36:37;;;;;;;;;;;;;;;;;;5074953;28;19909;-88
2024/02/01 03:41:57;;;;;;;;;;;;;;;;;;5102729;28;19973;-89
2024/02/01 03:44:23;;;;;;;;;;;;;;;;;;5119799;27;19907;-88
2024/02/01 03:46:56;;;;;;;;;;;;;;;;;;5108155;28;19920;-88
2024/02/01 03:49:24;;;;;;;;;;;;;;;;;;5089629;28;19912;-89
2024/02/01 03:51:50;;;;;;;;;;;;;;;;;;5092793;28;19984;-90
2024/02/01 03:54:16;;;;;;;;;;;;;;;;;;5084591;28;19912;-91
2024/02/01 03:56:44;;;;;;;;;;;;;;;;;;5109507;28;19920;-90
2024/02/01 03:59:11;;;;;;;;;;;;;;;;;;5112611;28;19922;-89
2024/02/01 04:01:37;;;;;;;;;;;;;;;;;;5098939;28;19912;-89
2024/02/01 04:04:05;;;;;;;;;;;;;;;;;;5104028;28;19916;-90
2024/02/01 04:06:32;;;;;;;;;;;;;;;;;;5096543;28;19924;-90
2024/02/01 04:09:14;;;;;;;;;;;;;;;;;;5125511;28;19928;-90
2024/02/01 04:11:39;;;;;;;;;;;;;;;;;;5109602;28;20289;-87
2024/02/01 04:14:05;;;;;;;;;;;;;;;;;;5075044;28;19916;-87
2024/02/01 04:16:31;;;;;;;;;;;;;;;;;;5087719;28;21731;-89
2024/02/01 04:18:57;;;;;;;;;;;;;;;;;;5112341;28;19896;-86
2024/02/01 04:21:23;;;;;;;;;;;;;;;;;;5121224;28;20288;-86
2024/02/01 04:23:49;;;;;;;;;;;;;;;;;;5092326;28;19959;-86
2024/02/01 04:26:15;;;;;;;;;;;;;;;;;;5092250;28;19924;-86
2024/02/01 04:28:41;;;;;;;;;;;;;;;;;;5091275;28;20358;-86
2024/02/01 04:31:07;;;;;;;;;;;;;;;;;;5093075;28;19912;-86
2024/02/01 04:33:32;;;;;;;;;;;;;;;;;;5098932;28;19912;-86
2024/02/01 04:35:58;;;;;;;;;;;;;;;;;;5083912;28;19912;-85
2024/02/01 04:38:27;;;;;;;;;;;;;;;;;;5087921;28;19958;-85
2024/02/01 04:40:53;;;;;;;;;;;;;;;;;;5092220;28;20135;-83
2024/02/01 04:43:19;;;;;;;;;;;;;;;;;;5092482;28;20324;-86
2024/02/01 04:45:45;;;;;;;;;;;;;;;;;;5080766;28;19916;-85
2024/02/01 04:48:11;;;;;;;;;;;;;;;;;;5090157;28;19958;-85
2024/02/01 04:50:37;;;;;;;;;;;;;;;;;;5077459;28;19952;-83
2024/02/01 04:53:03;;;;;;;;;;;;;;;;;;5072948;28;19912;-80
2024/02/01 04:55:29;;;;;;;;;;;;;;;;;;5085921;28;19920;-81
2024/02/01 04:57:54;;;;;;;;;;;;;;;;;;5088575;28;19920;-80
2024/02/01 05:00:21;;;;;;;;;;;;;;;;;;5087069;28;19958;-82
2024/02/01 05:02:47;;;;;;;;;;;;;;;;;;5073487;28;20443;-82
2024/02/01 05:05:13;;;;;;;;;;;;;;;;;;5094119;28;20038;-84
2024/02/01 05:07:39;;;;;;;;;;;;;;;;;;5086255;28;20404;-83
2024/02/01 05:10:07;;;;;;;;;;;;;;;;;;5090364;28;19942;-83
2024/02/01 05:12:35;;;;;;;;;;;;;;;;;;5078051;28;19912;-82
2024/02/01 05:15:01;;;;;;;;;;;;;;;;;;5089766;28;19916;-83
2024/02/01 05:17:27;;;;;;;;;;;;;;;;;;5090541;28;19961;-82
2024/02/01 05:19:53;;;;;;;;;;;;;;;;;;5089584;28;19920;-84
2024/02/01 05:22:18;;;;;;;;;;;;;;;;;;5088662;28;20011;-83
2024/02/01 05:24:44;;;;;;;;;;;;;;;;;;5097176;28;19908;-84
2024/02/01 05:27:10;;;;;;;;;;;;;;;;;;5090355;28;20523;-83
2024/02/01 05:29:36;;;;;;;;;;;;;;;;;;5089837;28;19912;-84
2024/02/01 05:32:06;;;;;;;;;;;;;;;;;;5084385;28;19926;-82
2024/02/01 05:34:31;;;;;;;;;;;;;;;;;;5075407;28;20546;-82
2024/02/01 05:36:57;;;;;;;;;;;;;;;;;;5080706;28;19924;-84
2024/02/01 05:39:26;;;;;;;;;;;;;;;;;;5078039;28;19915;-83
2024/02/01 05:41:52;;;;;;;;;;;;;;;;;;5080720;28;19923;-84
2024/02/01 05:44:18;;;;;;;;;;;;;;;;;;5081849;28;19919;-83
2024/02/01 05:46:44;;;;;;;;;;;;;;;;;;5078459;28;19920;-83
2024/02/01 05:49:10;;;;;;;;;;;;;;;;;;5080400;28;19927;-83
2024/02/01 05:51:36;;;;;;;;;;;;;;;;;;5079710;28;19923;-84
2024/02/01 05:54:02;;;;;;;;;;;;;;;;;;5085375;28;19927;-84
2024/02/01 05:56:28;;;;;;;;;;;;;;;;;;5094771;28;19912;-83
2024/02/01 05:58:54;;;;;;;;;;;;;;;;;;5089331;28;19916;-82
2024/02/01 06:01:20;;;;;;;;;;;;;;;;;;5088416;28;20071;-82
2024/02/01 06:03:46;;;;;;;;;;;;;;;;;;5087535;28;20379;-83
2024/02/01 06:06:12;;;;;;;;;;;;;;;;;;5088834;28;19916;-83
2024/02/01 06:08:37;;;;;;;;;;;;;;;;;;5092210;28;19924;-82
2024/02/01 06:11:03;;;;;;;;;;;;;;;;;;5091960;28;19912;-83
2024/02/01 06:13:29;;;;;;;;;;;;;;;;;;5088421;28;19931;-83
2024/02/01 06:15:55;;;;;;;;;;;;;;;;;;5085518;28;19998;-84
2024/02/01 06:18:21;;;;;;;;;;;;;;;;;;5091800;28;19913;-83
2024/02/01 06:20:47;;;;;;;;;;;;;;;;;;5089418;28;19969;-83
2024/02/01 06:23:12;;;;;;;;;;;;;;;;;;5088859;28;19948;-82
2024/02/01 06:25:38;;;;;;;;;;;;;;;;;;5087524;28;19919;-82
2024/02/01 06:28:04;;;;;;;;;;;;;;;;;;5070857;28;19965;-83
2024/02/01 06:30:30;;;;;;;;;;;;;;;;;;5085359;28;20020;-83
2024/02/01 06:32:56;;;;;;;;;;;;;;;;;;5089093;28;19983;-83
2024/02/01 06:35:22;;;;;;;;;;;;;;;;;;5085097;28;19912;-83
2024/02/01 06:38:04;;;;;;;;;;;;;;;;;;5087289;28;19916;-84
2024/02/01 06:41:06;;;;;;;;;;;;;;;;;;5082411;28;19916;-83
2024/02/01 06:43:41;;;;;;;;;;;;;;;;;;5092157;28;20004;-83
2024/02/01 06:46:22;;;;;;;;;;;;;;;;;;5088894;28;20022;-84
2024/02/01 06:49:01;;;;;;;;;;;;;;;;;;5089177;28;19916;-83
2024/02/01 06:51:32;;;;;;;;;;;;;;;;;;5092946;28;19915;-83
2024/02/01 06:54:05;;;;;;;;;;;;;;;;;;5088815;28;19912;-83
2024/02/01 06:56:48;;;;;;;;;;;;;;;;;;5088649;28;20390;-84
2024/02/01 07:02:24;;;;;;;;;;;;;;;;;;5064763;28;19912;-85
2024/02/01 07:04:51;;;;;;;;;;;;;;;;;;5086366;28;19916;-83
2024/02/01 07:07:26;;;;;;;;;;;;;;;;;;5084393;28;19928;-84
2024/02/01 07:10:43;;;;;;;;;;;;;;;;;;5075861;28;20065;-84
2024/02/01 07:13:06;;;;;;;;;;;;;;;;;;5082954;28;19988;-83
2024/02/01 07:15:32;;;;;;;;;;;;;;;;;;5087439;28;19997;-84
2024/02/01 07:17:59;;;;;;;;;;;;;;;;;;5089091;28;20118;-84
2024/02/01 07:20:35;;;;;;;;;;;;;;;;;;5086490;28;20007;-84
2024/02/01 07:23:03;;;;;;;;;;;;;;;;;;5088548;28;19919;-84
2024/02/01 07:25:48;;;;;;;;;;;;;;;;;;5074976;28;20409;-84
2024/02/01 07:58:26;;;;;;;;;;;;;;;;;;5091812;28;19950;-83
2024/02/01 08:00:54;;;;;;;;;;;;;;;;;;5095739;28;19951;-84
2024/02/01 08:03:32;;;;;;;;;;;;;;;;;;5093944;28;19934;-85
2024/02/01 08:08:42;;;;;;;;;;;;;;;;;;5113488;28;19945;-85
2024/02/01 08:11:08;;;;;;;;;;;;;;;;;;5114002;28;19916;-84
2024/02/01 08:13:35;;;;;;;;;;;;;;;;;;5094529;28;19916;-85
2024/02/01 08:16:02;;;;;;;;;;;;;;;;;;5089711;28;19912;-84
2024/02/01 08:18:34;;;;;;;;;;;;;;;;;;5118530;28;19915;-85
2024/02/01 08:21:00;;;;;;;;;;;;;;;;;;5124127;28;19912;-85
2024/02/01 08:23:41;;;;;;;;;;;;;;;;;;5192799;22;19965;-85
2024/02/01 08:26:07;;;;;;;;;;;;;;;;;;5104330;28;19920;-85
2024/02/01 08:28:33;;;;;;;;;;;;;;;;;;5102363;28;19912;-86
2024/02/01 08:31:03;;;;;;;;;;;;;;;;;;5106905;28;20002;-85
2024/02/01 08:33:29;;;;;;;;;;;;;;;;;;5105621;28;19924;-86
2024/02/01 08:35:55;;;;;;;;;;;;;;;;;;5098191;28;20015;-83
2024/02/01 08:38:21;;;;;;;;;;;;;;;;;;5099792;28;19923;-84
2024/02/01 08:40:47;;;;;;;;;;;;;;;;;;5097761;28;20015;-84
2024/02/01 08:43:13;;;;;;;;;;;;;;;;;;5096257;28;20324;-84
2024/02/01 08:45:39;;;;;;;;;;;;;;;;;;5091150;28;19916;-83
2024/02/01 08:48:05;;;;;;;;;;;;;;;;;;5089733;28;19954;-83
2024/02/01 08:50:31;;;;;;;;;;;;;;;;;;5091445;28;19920;-85
2024/02/01 08:52:57;;;;;;;;;;;;;;;;;;5093120;28;19914;-83
2024/02/01 08:55:23;;;;;;;;;;;;;;;;;;5093487;28;20288;-85
2024/02/01 08:57:49;;;;;;;;;;;;;;;;;;5084730;28;20112;-84
2024/02/01 09:00:21;;;;;;;;;;;;;;;;;;5092379;28;20450;-82
2024/02/01 09:02:47;;;;;;;;;;;;;;;;;;5088265;28;19958;-82
2024/02/01 09:05:19;;;;;;;;;;;;;;;;;;5090989;28;19912;-85
2024/02/01 09:07:45;;;;;;;;;;;;;;;;;;5091883;28;19923;-90
2024/02/01 09:10:10;;;;;;;;;;;;;;;;;;5102985;28;19916;-88
2024/02/01 09:12:36;;;;;;;;;;;;;;;;;;5098578;28;19896;-90
2024/02/01 09:15:07;;;;;;;;;;;;;;;;;;5100325;28;19922;-85
2024/02/01 09:17:33;;;;;;;;;;;;;;;;;;5087873;28;19915;-82
2024/02/01 09:19:59;;;;;;;;;;;;;;;;;;5098958;28;19999;-82
2024/02/01 09:22:25;;;;;;;;;;;;;;;;;;5093948;28;20000;-82
2024/02/01 09:24:50;;;;;;;;;;;;;;;;;;5089903;28;19924;-82
2024/02/01 09:27:16;;;;;;;;;;;;;;;;;;5090230;28;19916;-82
2024/02/01 09:29:44;;;;;;;;;;;;;;;;;;5090690;28;19950;-82
2024/02/01 09:32:10;;;;;;;;;;;;;;;;;;5081831;28;19920;-82
2024/02/01 09:34:37;;;;;;;;;;;;;;;;;;5075169;28;20424;-82
2024/02/01 09:37:03;;;;;;;;;;;;;;;;;;5084269;28;19916;-83
2024/02/01 09:39:29;;;;;;;;;;;;;;;;;;5077115;28;19958;-80
2024/02/01 09:41:55;;;;;;;;;;;;;;;;;;5083883;28;19912;-82
2024/02/01 09:44:21;;;;;;;;;;;;;;;;;;5089190;28;20277;-82
2024/02/01 09:46:47;;;;;;;;;;;;;;;;;;5088429;28;19955;-81
2024/02/01 09:49:12;;;;;;;;;;;;;;;;;;5082359;28;19965;-82
2024/02/01 09:51:38;;;;;;;;;;;;;;;;;;5085087;28;20002;-83
2024/02/01 09:54:11;;;;;;;;;;;;;;;;;;5093067;28;20152;-82
2024/02/01 09:56:37;;;;;;;;;;;;;;;;;;5090140;28;19943;-80
2024/02/01 09:59:03;;;;;;;;;;;;;;;;;;5089110;28;19952;-81
2024/02/01 10:01:29;;;;;;;;;;;;;;;;;;5090184;28;19943;-82
2024/02/01 10:03:55;;;;;;;;;;;;;;;;;;5089898;28;20366;-82
2024/02/01 10:06:21;;;;;;;;;;;;;;;;;;5088250;28;19927;-82
2024/02/01 10:08:48;;;;;;;;;;;;;;;;;;5077154;28;20035;-82
2024/02/01 10:11:19;;;;;;;;;;;;;;;;;;5080786;28;20362;-82
2024/02/01 10:13:45;;;;;;;;;;;;;;;;;;5085909;28;19913;-82
2024/02/01 10:16:14;;;;;;;;;;;;;;;;;;5082946;28;19939;-82
2024/02/01 10:18:43;;;;;;;;;;;;;;;;;;5089565;28;19908;-82
2024/02/01 10:21:22;;;;;;;;;;;;;;;;;;5070189;28;19923;-80
2024/02/01 10:23:47;;;;;;;;;;;;;;;;;;5083049;28;20271;-82
2024/02/01 10:26:18;;;;;;;;;;;;;;;;;;5081096;28;19965;-82
2024/02/01 10:28:44;;;;;;;;;;;;;;;;;;5074320;28;19947;-81
2024/02/01 10:31:09;;;;;;;;;;;;;;;;;;5081857;28;20016;-81
2024/02/01 10:33:36;;;;;;;;;;;;;;;;;;5087330;28;19912;-81
2024/02/01 10:36:08;;;;;;;;;;;;;;;;;;5088172;28;20302;-81
2024/02/01 10:38:34;;;;;;;;;;;;;;;;;;5083393;28;20023;-82
2024/02/01 10:41:02;;;;;;;;;;;;;;;;;;5086719;28;20011;-81
2024/02/01 10:43:28;;;;;;;;;;;;;;;;;;5081909;28;19912;-81
2024/02/01 10:45:53;;;;;;;;;;;;;;;;;;5083819;28;19913;-82
2024/02/01 10:48:30;;;;;;;;;;;;;;;;;;5085721;28;19974;-82
2024/02/01 10:50:58;;;;;;;;;;;;;;;;;;5085235;28;20368;-81
2024/02/01 10:53:24;;;;;;;;;;;;;;;;;;5088154;28;20430;-81
2024/02/01 10:55:50;;;;;;;;;;;;;;;;;;5088115;28;20003;-80
2024/02/01 10:58:15;;;;;;;;;;;;;;;;;;5085645;28;19920;-81
2024/02/01 11:00:42;;;;;;;;;;;;;;;;;;5074477;28;19916;-80
2024/02/01 11:03:08;;;;;;;;;;;;;;;;;;5085539;28;19920;-81
2024/02/01 11:05:34;;;;;;;;;;;;;;;;;;5087934;28;20503;-81
2024/02/01 11:08:00;;;;;;;;;;;;;;;;;;5087092;28;19931;-80
2024/02/01 11:10:25;;;;;;;;;;;;;;;;;;5086821;28;20374;-81
2024/02/01 11:12:54;;;;;;;;;;;;;;;;;;5083350;28;19920;-81
2024/02/01 11:15:20;;;;;;;;;;;;;;;;;;5084403;28;19961;-81
2024/02/01 11:17:45;;;;;;;;;;;;;;;;;;5086209;28;19912;-81
2024/02/01 11:20:12;;;;;;;;;;;;;;;;;;5090571;28;19912;-81
2024/02/01 11:22:38;;;;;;;;;;;;;;;;;;5090094;28;19920;-81
2024/02/01 11:25:04;;;;;;;;;;;;;;;;;;5091390;28;19923;-88
2024/02/01 11:27:36;;;;;;;;;;;;;;;;;;5096577;28;20643;-84
2024/02/01 11:30:19;;;;;;;;;;;;;;;;;;5099353;28;19928;-84
2024/02/01 11:32:46;;;;;;;;;;;;;;;;;;5105879;28;19908;-87
2024/02/01 11:35:13;;;;;;;;;;;;;;;;;;5104791;28;19965;-87
2024/02/01 11:37:41;;;;;;;;;;;;;;;;;;5101006;28;19968;-86
2024/02/01 11:40:15;;;;;;;;;;;;;;;;;;5100710;28;20002;-87
2024/02/01 11:42:41;;;;;;;;;;;;;;;;;;5105995;28;19922;-87
2024/02/01 11:45:08;;;;;;;;;;;;;;;;;;5102328;28;19912;-85
2024/02/01 11:47:34;;;;;;;;;;;;;;;;;;5088710;28;19957;-86
2024/02/01 11:50:00;;;;;;;;;;;;;;;;;;5107427;28;19908;-86
2024/02/01 11:52:26;;;;;;;;;;;;;;;;;;5106473;28;19908;-87
2024/02/01 11:54:52;;;;;;;;;;;;;;;;;;5111723;28;19916;-86
2024/02/01 11:57:18;;;;;;;;;;;;;;;;;;5108195;28;19919;-85
2024/02/01 11:59:44;;;;;;;;;;;;;;;;;;5119465;28;19950;-88
2024/02/01 12:02:10;;;;;;;;;;;;;;;;;;5109630;28;19908;-86
2024/02/01 12:04:36;;;;;;;;;;;;;;;;;;5109401;28;19908;-86
2024/02/01 12:07:05;;;;;;;;;;;;;;;;;;5108823;28;19933;-86
2024/02/01 12:09:34;;;;;;;;;;;;;;;;;;5108610;28;19915;-86
2024/02/01 12:11:59;;;;;;;;;;;;;;;;;;5105215;28;19908;-86
2024/02/01 12:14:25;;;;;;;;;;;;;;;;;;5108462;28;19951;-87
2024/02/01 12:16:54;;;;;;;;;;;;;;;;;;5106972;28;20283;-87
2024/02/01 12:19:23;;;;;;;;;;;;;;;;;;5082825;28;19995;-86
2024/02/01 12:21:54;;;;;;;;;;;;;;;;;;5097420;28;19948;-87
2024/02/01 12:24:19;;;;;;;;;;;;;;;;;;5104117;28;19930;-87
2024/02/01 12:26:46;;;;;;;;;;;;;;;;;;5095968;28;20047;-85
2024/02/01 12:29:11;;;;;;;;;;;;;;;;;;5092702;28;20416;-86
2024/02/01 12:31:37;;;;;;;;;;;;;;;;;;5094440;28;19916;-87
2024/02/01 12:34:04;;;;;;;;;;;;;;;;;;5105126;28;19919;-87
2024/02/01 12:36:30;;;;;;;;;;;;;;;;;;5081433;28;20056;-85
2024/02/01 12:38:56;;;;;;;;;;;;;;;;;;5091971;28;19919;-84
2024/02/01 12:41:22;;;;;;;;;;;;;;;;;;5091179;28;19912;-85
2024/02/01 12:43:51;;;;;;;;;;;;;;;;;;5089302;28;19973;-87
2024/02/01 12:46:21;;;;;;;;;;;;;;;;;;5091564;28;19927;-84
2024/02/01 12:48:47;;;;;;;;;;;;;;;;;;5092298;28;19912;-86
2024/02/01 12:51:13;;;;;;;;;;;;;;;;;;5091286;28;19991;-85
2024/02/01 12:53:39;;;;;;;;;;;;;;;;;;5086250;28;19928;-85
2024/02/01 12:56:05;;;;;;;;;;;;;;;;;;5091418;28;19911;-84
2024/02/01 12:58:39;;;;;;;;;;;;;;;;;;5090444;28;19916;-84
2024/02/01 13:01:05;;;;;;;;;;;;;;;;;;5086925;28;20413;-83
2024/02/01 13:03:31;;;;;;;;;;;;;;;;;;5082759;28;19922;-84
2024/02/01 13:05:57;;;;;;;;;;;;;;;;;;5100225;28;20023;-86
2024/02/01 13:08:23;;;;;;;;;;;;;;;;;;5090546;28;19920;-85
2024/02/01 13:10:49;;;;;;;;;;;;;;;;;;5073135;28;20355;-84
2024/02/01 13:13:15;;;;;;;;;;;;;;;;;;5087018;28;20321;-86
2024/02/01 13:15:46;;;;;;;;;;;;;;;;;;5087019;28;20123;-86
2024/02/01 13:18:12;;;;;;;;;;;;;;;;;;5090068;28;19961;-85
2024/02/01 13:20:37;;;;;;;;;;;;;;;;;;5088950;28;19922;-86
2024/02/01 13:23:08;;;;;;;;;;;;;;;;;;5088745;28;20053;-86
2024/02/01 13:25:34;;;;;;;;;;;;;;;;;;5089738;28;19912;-85
2024/02/01 13:28:00;;;;;;;;;;;;;;;;;;5087890;28;20393;-84
2024/02/01 13:30:26;;;;;;;;;;;;;;;;;;5088920;28;19912;-84
2024/02/01 13:32:52;;;;;;;;;;;;;;;;;;5088485;28;19923;-85
2024/02/01 13:35:18;;;;;;;;;;;;;;;;;;5090900;28;19987;-85
2024/02/01 13:37:46;;;;;;;;;;;;;;;;;;5097151;28;19916;-84
2024/02/01 13:40:15;;;;;;;;;;;;;;;;;;5088775;28;20389;-83
2024/02/01 13:42:41;;;;;;;;;;;;;;;;;;5087142;28;19908;-85
2024/02/01 13:45:07;;;;;;;;;;;;;;;;;;5088543;28;19951;-83
2024/02/01 13:47:33;;;;;;;;;;;;;;;;;;5092654;28;19977;-82
2024/02/01 13:49:59;;;;;;;;;;;;;;;;;;5095254;28;19908;-84
2024/02/01 13:52:24;;;;;;;;;;;;;;;;;;5092177;28;19919;-83
2024/02/01 13:54:51;;;;;;;;;;;;;;;;;;5091285;28;19912;-82
2024/02/01 13:57:16;;;;;;;;;;;;;;;;;;5098240;28;19912;-83
2024/02/01 13:59:42;;;;;;;;;;;;;;;;;;5087190;28;19920;-83
2024/02/01 14:02:08;;;;;;;;;;;;;;;;;;5091082;28;19992;-83
2024/02/01 14:04:34;;;;;;;;;;;;;;;;;;5089917;28;19950;-83
2024/02/01 14:07:00;;;;;;;;;;;;;;;;;;5089285;28;19915;-83
2024/02/01 14:09:26;;;;;;;;;;;;;;;;;;5088732;28;19952;-84
2024/02/01 14:11:52;;;;;;;;;;;;;;;;;;5089135;28;19954;-83
2024/02/01 14:14:17;;;;;;;;;;;;;;;;;;5089038;28;20147;-83
2024/02/01 14:16:43;;;;;;;;;;;;;;;;;;5093712;28;19919;-83
2024/02/01 14:19:09;;;;;;;;;;;;;;;;;;5089111;28;19928;-84
2024/02/01 14:21:36;;;;;;;;;;;;;;;;;;5089724;28;19912;-83
2024/02/01 14:24:02;;;;;;;;;;;;;;;;;;5088660;28;19924;-83
2024/02/01 14:26:28;;;;;;;;;;;;;;;;;;5089171;28;20399;-83
2024/02/01 14:28:54;;;;;;;;;;;;;;;;;;5070843;28;19997;-83
2024/02/01 14:31:22;;;;;;;;;;;;;;;;;;5089526;28;21220;-82
2024/02/01 14:33:48;;;;;;;;;;;;;;;;;;5089031;28;20350;-83
2024/02/01 14:36:14;;;;;;;;;;;;;;;;;;5088801;28;19912;-83
2024/02/01 14:38:41;;;;;;;;;;;;;;;;;;5089273;28;19970;-83
2024/02/01 14:41:10;;;;;;;;;;;;;;;;;;5088744;28;19912;-83
2024/02/01 14:43:36;;;;;;;;;;;;;;;;;;5087835;28;19961;-83
2024/02/01 14:46:01;;;;;;;;;;;;;;;;;;5078814;28;19916;-85
2024/02/01 14:48:27;;;;;;;;;;;;;;;;;;5089014;28;20274;-83
2024/02/01 14:50:53;;;;;;;;;;;;;;;;;;5088799;28;19933;-83
2024/02/01 14:53:19;;;;;;;;;;;;;;;;;;5091867;28;19991;-83
2024/02/01 14:55:45;;;;;;;;;;;;;;;;;;5088472;28;19919;-84
2024/02/01 14:58:11;;;;;;;;;;;;;;;;;;5087530;28;19919;-83
2024/02/01 15:00:36;;;;;;;;;;;;;;;;;;5087282;28;20019;-84
2024/02/01 15:03:02;;;;;;;;;;;;;;;;;;5091239;28;19918;-84
2024/02/01 15:05:29;;;;;;;;;;;;;;;;;;5088678;28;20409;-84
2024/02/01 15:07:55;;;;;;;;;;;;;;;;;;5088834;28;19957;-83
2024/02/01 15:10:21;;;;;;;;;;;;;;;;;;5088721;28;19977;-83
2024/02/01 15:12:47;;;;;;;;;;;;;;;;;;5090945;28;19916;-83
2024/02/01 15:15:13;;;;;;;;;;;;;;;;;;5089055;28;19912;-83
2024/02/01 15:17:39;;;;;;;;;;;;;;;;;;5088955;28;19908;-82
2024/02/01 15:20:08;;;;;;;;;;;;;;;;;;5098004;28;19993;-83
2024/02/01 15:22:34;;;;;;;;;;;;;;;;;;5090928;28;19912;-83
2024/02/01 15:25:00;;;;;;;;;;;;;;;;;;5088443;28;20383;-83
2024/02/01 15:27:26;;;;;;;;;;;;;;;;;;5087308;28;19927;-82
2024/02/01 15:29:52;;;;;;;;;;;;;;;;;;5083370;28;19946;-81
2024/02/01 15:32:17;;;;;;;;;;;;;;;;;;5094280;28;19946;-86
2024/02/01 15:34:43;;;;;;;;;;;;;;;;;;5091026;28;19912;-88
2024/02/01 15:37:09;;;;;;;;;;;;;;;;;;5072601;28;19961;-85
2024/02/01 15:39:39;;;;;;;;;;;;;;;;;;5091705;28;20336;-87
2024/02/01 15:42:08;;;;;;;;;;;;;;;;;;5088199;28;20287;-82
2024/02/01 15:44:33;;;;;;;;;;;;;;;;;;5083710;28;19912;-85
2024/02/01 15:46:59;;;;;;;;;;;;;;;;;;5083255;28;19928;-84
2024/02/01 15:49:25;;;;;;;;;;;;;;;;;;5082819;28;20362;-83
2024/02/01 15:51:51;;;;;;;;;;;;;;;;;;5091848;28;19912;-88
2024/02/01 15:54:17;;;;;;;;;;;;;;;;;;5086139;28;20042;-80
2024/02/01 15:56:43;;;;;;;;;;;;;;;;;;5084663;28;19981;-82
2024/02/01 15:59:09;;;;;;;;;;;;;;;;;;5082575;28;20007;-83
2024/02/01 16:01:35;;;;;;;;;;;;;;;;;;5085155;28;20034;-81
2024/02/01 16:04:02;;;;;;;;;;;;;;;;;;5095512;28;19916;-82
2024/02/01 16:06:27;;;;;;;;;;;;;;;;;;5091819;28;19912;-83
2024/02/01 16:08:53;;;;;;;;;;;;;;;;;;5091174;28;19912;-82
2024/02/01 16:11:19;;;;;;;;;;;;;;;;;;5091792;28;19961;-82
2024/02/01 16:13:46;;;;;;;;;;;;;;;;;;5089371;28;19912;-84
2024/02/01 16:16:12;;;;;;;;;;;;;;;;;;5090187;28;20459;-83
2024/02/01 16:18:38;;;;;;;;;;;;;;;;;;5092646;28;19912;-83
2024/02/01 16:21:07;;;;;;;;;;;;;;;;;;5095442;28;19916;-84
2024/02/01 16:23:33;;;;;;;;;;;;;;;;;;5073112;28;19924;-82
2024/02/01 16:26:01;;;;;;;;;;;;;;;;;;5089068;28;19916;-83
2024/02/01 16:28:27;;;;;;;;;;;;;;;;;;5089943;28;19919;-81
2024/02/01 16:30:56;;;;;;;;;;;;;;;;;;5083420;28;19926;-84
2024/02/01 16:33:22;;;;;;;;;;;;;;;;;;5087797;28;20639;-85
2024/02/01 16:35:48;;;;;;;;;;;;;;;;;;5095686;28;19919;-85
2024/02/01 16:38:14;;;;;;;;;;;;;;;;;;5090950;28;19919;-86
2024/02/01 16:40:40;;;;;;;;;;;;;;;;;;5092264;28;20090;-85
2024/02/01 16:43:06;;;;;;;;;;;;;;;;;;5089942;28;20262;-86
2024/02/01 16:45:32;;;;;;;;;;;;;;;;;;5086733;28;19913;-84
2024/02/01 16:47:58;;;;;;;;;;;;;;;;;;5090905;28;20402;-85
2024/02/01 16:50:24;;;;;;;;;;;;;;;;;;5095255;28;19950;-84
2024/02/01 16:52:51;;;;;;;;;;;;;;;;;;5091158;28;20371;-85
2024/02/01 16:55:17;;;;;;;;;;;;;;;;;;5083255;28;19919;-85
2024/02/01 16:57:43;;;;;;;;;;;;;;;;;;5091039;28;19912;-85
2024/02/01 17:00:10;;;;;;;;;;;;;;;;;;5095168;28;19937;-85
2024/02/01 17:02:36;;;;;;;;;;;;;;;;;;5092916;28;19913;-84
2024/02/01 17:05:04;;;;;;;;;;;;;;;;;;5088075;28;20368;-84
2024/02/01 17:07:30;;;;;;;;;;;;;;;;;;5074181;28;19950;-83
2024/02/01 17:09:56;;;;;;;;;;;;;;;;;;5091528;28;20324;-83
2024/02/01 17:12:22;;;;;;;;;;;;;;;;;;5089473;28;19916;-83
2024/02/01 17:14:48;;;;;;;;;;;;;;;;;;5075675;28;19927;-85
2024/02/01 17:17:14;;;;;;;;;;;;;;;;;;5072224;28;19969;-84
2024/02/01 17:19:40;;;;;;;;;;;;;;;;;;5088096;28;19912;-84
2024/02/01 17:22:06;;;;;;;;;;;;;;;;;;5096595;28;19912;-85
2024/02/01 17:24:32;;;;;;;;;;;;;;;;;;5091893;28;19973;-85
2024/02/01 17:27:04;;;;;;;;;;;;;;;;;;5092117;28;19920;-86